Time;durP1;ratioP1;P1;durP2;ratioP2;P2;SDS_P1;SDS_P2;PMS_P1;PMS_P2;Temp;Humidity;BMP_temperature;BMP_pressure;BME280_temperature;BME280_humidity;BME280_pressure;Samples;Min_cycle;Max_cycle;Signal;HPM_P1;HPM_P2
2021/06/15 00:25:33;;;;;;;34.13;4.95;;;;;;;;;;5089109;27;20922;-51
2021/06/15 00:28:03;;;;;;;32.83;5.18;;;;;;;;;;5075152;28;20037;-54
2021/06/15 00:30:30;;;;;;;25.80;4.38;;;;;;;;;;5075624;28;20044;-56
2021/06/15 00:32:57;;;;;;;30.05;4.93;;;;;;;;;;5074011;28;20119;-53
2021/06/15 00:35:24;;;;;;;21.98;4.10;;;;;;;;;;5074117;28;20043;-56
2021/06/15 00:37:52;;;;;;;28.10;5.65;;;;;;;;;;5076175;28;20094;-55
2021/06/15 00:40:20;;;;;;;24.15;4.57;;;;;;;;;;5076219;28;20664;-55
2021/06/15 00:42:47;;;;;;;33.00;4.80;;;;;;;;;;5075505;28;20512;-54
2021/06/15 00:45:15;;;;;;;17.45;4.68;;;;;;;;;;5072119;28;20127;-50
2021/06/15 00:47:45;;;;;;;28.23;4.35;;;;;;;;;;5085805;28;20033;-56
2021/06/15 00:50:12;;;;;;;21.52;4.22;;;;;;;;;;5072549;28;20048;-56
2021/06/15 00:52:39;;;;;;;25.10;4.68;;;;;;;;;;5078577;28;20052;-57
2021/06/15 00:55:06;;;;;;;28.95;5.55;;;;;;;;;;5073880;28;20131;-55
2021/06/15 00:57:34;;;;;;;22.73;4.03;;;;;;;;;;5069552;28;20555;-54
2021/06/15 01:00:00;;;;;;;25.38;4.40;;;;;;;;;;5075069;28;20032;-51
2021/06/15 01:02:30;;;;;;;29.95;5.55;;;;;;;;;;5071396;28;20037;-56
2021/06/15 01:05:01;;;;;;;28.88;4.45;;;;;;;;;;5068938;28;20578;-55
2021/06/15 01:07:44;;;;;;;25.02;4.30;;;;;;;;;;5076962;28;20563;-54
2021/06/15 01:10:31;;;;;;;24.27;4.03;;;;;;;;;;5056129;28;20148;-55
2021/06/15 01:13:06;;;;;;;31.38;4.47;;;;;;;;;;5070784;28;20052;-54
2021/06/15 01:15:52;;;;;;;26.13;3.90;;;;;;;;;;5071608;28;20079;-52
2021/06/15 01:18:21;;;;;;;31.48;4.82;;;;;;;;;;5059544;28;20049;-56
2021/06/15 01:20:54;;;;;;;28.88;4.75;;;;;;;;;;5054711;28;20037;-56
2021/06/15 01:23:31;;;;;;;37.65;4.57;;;;;;;;;;5072109;28;20132;-56
2021/06/15 01:26:03;;;;;;;30.17;4.50;;;;;;;;;;5056603;28;20416;-56
2021/06/15 01:28:48;;;;;;;24.63;4.25;;;;;;;;;;5056667;28;20080;-56
2021/06/15 01:31:22;;;;;;;24.70;4.43;;;;;;;;;;5067874;28;20407;-55
2021/06/15 01:33:51;;;;;;;26.27;3.72;;;;;;;;;;5056989;28;20061;-56
2021/06/15 01:36:21;;;;;;;33.15;4.68;;;;;;;;;;5059827;28;20591;-55
2021/06/15 01:38:51;;;;;;;23.92;4.45;;;;;;;;;;5045078;28;20041;-55
2021/06/15 01:41:24;;;;;;;20.70;4.18;;;;;;;;;;5054567;28;20045;-55
2021/06/15 01:43:54;;;;;;;27.13;4.70;;;;;;;;;;5042656;28;20057;-56
2021/06/15 01:46:24;;;;;;;23.75;4.07;;;;;;;;;;5047373;28;20136;-53
2021/06/15 01:48:58;;;;;;;29.33;4.50;;;;;;;;;;5047186;28;20074;-56
2021/06/15 01:51:27;;;;;;;20.48;4.05;;;;;;;;;;5041122;28;20811;-56
2021/06/15 01:54:09;;;;;;;21.55;4.53;;;;;;;;;;5039419;28;20041;-51
2021/06/15 01:56:45;;;;;;;19.77;3.80;;;;;;;;;;5034125;28;20196;-55
2021/06/15 01:59:14;;;;;;;23.15;3.90;;;;;;;;;;5039564;28;20064;-56
2021/06/15 02:01:46;;;;;;;19.02;3.50;;;;;;;;;;5044604;28;20045;-56
2021/06/15 02:04:19;;;;;;;21.25;4.97;;;;;;;;;;5045144;28;20497;-56
2021/06/15 02:06:49;;;;;;;27.92;4.32;;;;;;;;;;5040240;28;20049;-54
2021/06/15 02:09:21;;;;;;;23.60;5.05;;;;;;;;;;5046054;28;20045;-55
2021/06/15 02:11:59;;;;;;;24.52;3.92;;;;;;;;;;5047196;28;20044;-54
2021/06/15 02:14:56;;;;;;;41.10;5.22;;;;;;;;;;5044705;28;20044;-54
2021/06/15 02:17:30;;;;;;;18.08;4.35;;;;;;;;;;5056665;28;20041;-53
2021/06/15 02:20:04;;;;;;;24.30;4.00;;;;;;;;;;5045936;28;20049;-53
2021/06/15 02:22:31;;;;;;;22.48;4.72;;;;;;;;;;5042061;28;20048;-55
2021/06/15 02:25:01;;;;;;;28.80;5.47;;;;;;;;;;5042940;28;20049;-55
2021/06/15 02:27:30;;;;;;;22.67;4.32;;;;;;;;;;5043377;28;20037;-56
2021/06/15 02:29:57;;;;;;;22.85;4.00;;;;;;;;;;5045522;28;20047;-55
2021/06/15 02:32:35;;;;;;;18.33;3.90;;;;;;;;;;5039577;28;20092;-56
2021/06/15 02:35:06;;;;;;;23.83;3.75;;;;;;;;;;5040986;28;20064;-53
2021/06/15 02:37:39;;;;;;;24.67;4.18;;;;;;;;;;5038380;28;20049;-56
2021/06/15 02:40:06;;;;;;;27.40;4.40;;;;;;;;;;5042784;28;20045;-53
2021/06/15 02:42:45;;;;;;;22.55;3.63;;;;;;;;;;5047632;28;20045;-54
2021/06/15 02:45:18;;;;;;;22.30;3.70;;;;;;;;;;5043706;28;20139;-51
2021/06/15 02:47:47;;;;;;;21.42;3.78;;;;;;;;;;5042139;28;20041;-56
2021/06/15 02:50:18;;;;;;;24.65;3.67;;;;;;;;;;5037982;28;20350;-52
2021/06/15 02:52:49;;;;;;;32.60;4.13;;;;;;;;;;5048399;28;20037;-54
2021/06/15 02:55:37;;;;;;;26.15;4.00;;;;;;;;;;5057416;28;20068;-56
2021/06/15 02:58:09;;;;;;;18.00;3.55;;;;;;;;;;5044942;28;20037;-56
2021/06/15 03:00:37;;;;;;;22.70;3.85;;;;;;;;;;5042700;28;20132;-54
2021/06/15 03:26:40;;;;;;;15.68;2.63;;;;;;;;;;5098237;27;20903;-54
2021/06/15 03:29:10;;;;;;;34.05;4.38;;;;;;;;;;5090714;28;20123;-56
2021/06/15 03:31:40;;;;;;;24.08;3.15;;;;;;;;;;5095147;28;20079;-55
2021/06/15 03:34:09;;;;;;;21.17;3.90;;;;;;;;;;5096818;28;20056;-56
2021/06/15 03:36:38;;;;;;;23.50;4.15;;;;;;;;;;5093500;28;20041;-55
2021/06/15 03:39:05;;;;;;;18.02;3.47;;;;;;;;;;5091697;28;20064;-54
2021/06/15 03:41:34;;;;;;;20.38;3.75;;;;;;;;;;5091035;28;20055;-54
2021/06/15 03:44:02;;;;;;;29.15;2.97;;;;;;;;;;5093550;28;20038;-55
2021/06/15 03:46:30;;;;;;;26.13;3.85;;;;;;;;;;5096818;28;20044;-54
2021/06/15 03:48:57;;;;;;;21.55;3.63;;;;;;;;;;5096540;28;20059;-55
2021/06/15 03:51:30;;;;;;;24.92;3.63;;;;;;;;;;5092048;28;20050;-56
2021/06/15 03:54:10;;;;;;;15.45;3.60;;;;;;;;;;5092037;28;20109;-56
2021/06/15 03:56:44;;;;;;;16.73;3.38;;;;;;;;;;5095920;28;20483;-56
2021/06/15 03:59:12;;;;;;;17.67;3.50;;;;;;;;;;5091714;28;20081;-55
2021/06/15 04:01:39;;;;;;;25.50;3.97;;;;;;;;;;5097284;28;20044;-51
2021/06/15 04:04:09;;;;;;;17.13;3.28;;;;;;;;;;5091965;28;20624;-56
2021/06/15 04:06:40;;;;;;;18.85;3.75;;;;;;;;;;5097967;28;20313;-57
2021/06/15 04:09:08;;;;;;;20.63;3.22;;;;;;;;;;5090723;28;20491;-57
2021/06/15 04:11:36;;;;;;;19.30;3.45;;;;;;;;;;5089112;28;20125;-56
2021/06/15 04:14:12;;;;;;;15.88;3.20;;;;;;;;;;5088836;28;20040;-57
2021/06/15 04:16:40;;;;;;;17.85;3.75;;;;;;;;;;5090543;28;20127;-57
2021/06/15 04:19:08;;;;;;;16.70;3.63;;;;;;;;;;5089902;28;20735;-55
2021/06/15 04:21:37;;;;;;;11.55;2.85;;;;;;;;;;5095642;28;20504;-56
2021/06/15 04:24:06;;;;;;;14.10;3.20;;;;;;;;;;5089192;28;20040;-55
2021/06/15 04:26:41;;;;;;;16.88;3.95;;;;;;;;;;5094532;28;20053;-55
2021/06/15 04:29:10;;;;;;;20.40;3.72;;;;;;;;;;5091914;28;20048;-54
2021/06/15 04:31:39;;;;;;;14.02;3.00;;;;;;;;;;5090781;28;20043;-55
2021/06/15 04:34:11;;;;;;;16.08;2.92;;;;;;;;;;5090631;28;20756;-55
2021/06/15 05:26:36;;;;;;;13.98;2.45;;;;;;;;;;5118854;27;20228;-56
2021/06/15 05:29:09;;;;;;;10.90;2.70;;;;;;;;;;5097862;28;20048;-56
2021/06/15 05:31:36;;;;;;;13.63;2.65;;;;;;;;;;5094859;28;20028;-58
2021/06/15 05:34:03;;;;;;;16.75;3.00;;;;;;;;;;5094698;28;20078;-58
2021/06/15 05:36:31;;;;;;;16.40;3.00;;;;;;;;;;5100139;28;20040;-58
2021/06/15 05:38:57;;;;;;;10.25;2.95;;;;;;;;;;5091447;28;20040;-58
2021/06/15 05:41:24;;;;;;;13.05;2.53;;;;;;;;;;5097679;28;20506;-58
2021/06/15 05:43:51;;;;;;;21.73;3.25;;;;;;;;;;5101051;28;20051;-58
2021/06/15 05:46:18;;;;;;;20.38;3.13;;;;;;;;;;5094185;28;20503;-58
2021/06/15 05:48:45;;;;;;;17.40;3.13;;;;;;;;;;5096731;28;20044;-59
2021/06/15 05:51:13;;;;;;;19.50;3.20;;;;;;;;;;5101065;28;20054;-59
2021/06/15 05:53:41;;;;;;;16.60;2.65;;;;;;;;;;5100844;28;20055;-58
2021/06/15 05:56:08;;;;;;;20.35;3.05;;;;;;;;;;5095298;28;20028;-58
2021/06/15 05:58:35;;;;;;;13.73;3.05;;;;;;;;;;5099262;28;20093;-59
2021/06/15 06:01:02;;;;;;;15.45;2.67;;;;;;;;;;5098064;28;20120;-59
2021/06/15 06:03:34;;;;;;;26.53;3.17;;;;;;;;;;5104137;28;20123;-59
2021/06/15 06:08:48;;;;;;;11.20;2.83;;;;;;;;;;5095417;28;20093;-59
2021/06/15 06:11:18;;;;;;;13.32;2.95;;;;;;;;;;5096320;28;20048;-59
2021/06/15 06:13:46;;;;;;;12.40;3.27;;;;;;;;;;5100369;28;20048;-59
2021/06/15 06:16:19;;;;;;;18.50;4.05;;;;;;;;;;5097148;28;20074;-59
2021/06/15 06:19:06;;;;;;;23.00;3.20;;;;;;;;;;5094944;28;20455;-59
2021/06/15 06:21:34;;;;;;;18.10;2.90;;;;;;;;;;5078694;28;20051;-59
2021/06/15 06:24:03;;;;;;;19.92;3.70;;;;;;;;;;5093720;28;20044;-59
2021/06/15 06:26:29;;;;;;;;;;;;;;;;;;5069417;28;20064;-59
2021/06/15 06:28:57;;;;;;;13.48;2.65;;;;;;;;;;5076914;28;19927;-59
2021/06/15 06:31:24;;;;;;;;;;;;;;;;;;5076075;28;20053;-59
2021/06/15 06:33:51;;;;;;;14.90;2.58;;;;;;;;;;5073662;28;19920;-59
2021/06/15 06:36:18;;;;;;;15.87;2.90;;;;;;;;;;5072374;28;20037;-60
2021/06/15 06:38:48;;;;;;;12.63;2.85;;;;;;;;;;5060892;28;20294;-60
2021/06/15 06:41:15;;;;;;;17.02;2.75;;;;;;;;;;5060086;28;20052;-60
2021/06/15 06:43:42;;;;;;;12.43;2.63;;;;;;;;;;5063357;28;20376;-60
2021/06/15 06:46:09;;;;;;;17.85;2.95;;;;;;;;;;5061266;28;20059;-60
2021/06/15 06:48:36;;;;;;;11.43;2.28;;;;;;;;;;5064889;28;20691;-60
2021/06/15 06:51:03;;;;;;;20.60;3.22;;;;;;;;;;5063006;28;20052;-59
2021/06/15 06:53:32;;;;;;;20.20;3.33;;;;;;;;;;5060717;28;20044;-60
2021/06/15 06:55:59;;;;;;;16.40;2.53;;;;;;;;;;5063626;28;20071;-60
2021/06/15 06:58:26;;;;;;;12.80;3.00;;;;;;;;;;5059973;28;20063;-60
2021/06/15 07:00:54;;;;;;;12.38;2.63;;;;;;;;;;5058012;28;20055;-60
2021/06/15 07:03:27;;;;;;;12.98;2.28;;;;;;;;;;5061440;28;20128;-60
2021/06/15 07:06:07;;;;;;;12.40;2.55;;;;;;;;;;5058873;28;20097;-60
2021/06/15 07:08:34;;;;;;;12.88;3.35;;;;;;;;;;5069441;28;20386;-60
2021/06/15 07:11:04;;;;;;;11.90;2.67;;;;;;;;;;5061761;28;20055;-59
2021/06/15 07:13:31;;;;;;;16.48;3.10;;;;;;;;;;5064112;28;20048;-60
2021/06/15 07:15:58;;;;;;;19.70;2.67;;;;;;;;;;5060206;28;20527;-60
2021/06/15 07:18:25;;;;;;;13.18;2.80;;;;;;;;;;5061329;28;20531;-60
2021/06/15 07:20:53;;;;;;;15.68;2.75;;;;;;;;;;5057277;28;20098;-60
2021/06/15 07:23:20;;;;;;;10.77;2.47;;;;;;;;;;5039056;28;20127;-60
2021/06/15 07:25:46;;;;;;;12.38;2.20;;;;;;;;;;5070167;28;20139;-60
2021/06/15 07:28:13;;;;;;;14.55;2.45;;;;;;;;;;5084876;28;20509;-60
2021/06/15 07:30:42;;;;;;;11.40;2.25;;;;;;;;;;5081720;28;20083;-60
2021/06/15 07:33:20;;;;;;;9.52;2.10;;;;;;;;;;5082719;28;20048;-60
2021/06/15 07:35:48;;;;;;;10.30;2.17;;;;;;;;;;5084119;28;20044;-61
2021/06/15 07:38:22;;;;;;;9.63;2.33;;;;;;;;;;5077787;28;20071;-61
2021/06/15 07:40:48;;;;;;;8.90;2.30;;;;;;;;;;5078468;28;20048;-60
2021/06/15 07:43:16;;;;;;;15.90;2.67;;;;;;;;;;5083285;28;20502;-61
2021/06/15 07:45:42;;;;;;;;;;;;;;;;;;5079888;28;20305;-61
2021/06/15 07:48:09;;;;;;;14.75;2.90;;;;;;;;;;5078589;28;19959;-61
2021/06/15 07:50:36;;;;;;;24.55;3.08;;;;;;;;;;5084193;28;20043;-61
2021/06/15 07:53:03;;;;;;;14.65;2.70;;;;;;;;;;5078509;28;20044;-60
2021/06/15 07:55:31;;;;;;;15.80;2.55;;;;;;;;;;5084294;28;20089;-61
2021/06/15 07:57:57;;;;;;;12.20;2.22;;;;;;;;;;5081701;28;20047;-61
2021/06/15 08:00:25;;;;;;;10.70;2.67;;;;;;;;;;5088538;28;20032;-60
2021/06/15 08:02:52;;;;;;;8.98;2.47;;;;;;;;;;5078517;28;20097;-61
2021/06/15 08:05:19;;;;;;;16.95;2.17;;;;;;;;;;5081282;28;20044;-60
2021/06/15 08:07:50;;;;;;;8.50;2.33;;;;;;;;;;5084557;28;20110;-61
2021/06/15 08:10:19;;;;;;;10.68;2.05;;;;;;;;;;5077268;28;20495;-61
2021/06/15 08:12:46;;;;;;;8.05;1.73;;;;;;;;;;5078230;28;20130;-61
2021/06/15 08:15:15;;;;;;;10.13;2.25;;;;;;;;;;5078618;28;20068;-61
2021/06/15 08:17:42;;;;;;;9.70;2.38;;;;;;;;;;5077088;28;20036;-61
2021/06/15 08:20:10;;;;;;;15.27;2.13;;;;;;;;;;5075560;28;20041;-61
2021/06/15 08:22:37;;;;;;;8.40;2.00;;;;;;;;;;5079779;28;20093;-61
2021/06/15 08:25:05;;;;;;;9.30;2.10;;;;;;;;;;5071024;28;20496;-61
2021/06/15 08:27:34;;;;;;;8.98;2.08;;;;;;;;;;5062388;28;20036;-61
2021/06/15 08:30:01;;;;;;;10.75;2.05;;;;;;;;;;5061188;28;20036;-61
2021/06/15 08:32:33;;;;;;;15.15;2.63;;;;;;;;;;5058269;28;20517;-61
2021/06/15 08:34:59;;;;;;;13.35;2.58;;;;;;;;;;5061654;28;20041;-60
2021/06/15 08:37:26;;;;;;;11.60;2.80;;;;;;;;;;5059864;28;20098;-61
2021/06/15 08:39:53;;;;;;;12.90;2.60;;;;;;;;;;5055726;28;20491;-61
2021/06/15 08:42:26;;;;;;;11.52;2.80;;;;;;;;;;5061684;28;20049;-61
2021/06/15 08:44:55;;;;;;;11.95;2.80;;;;;;;;;;5059830;28;20055;-61
2021/06/15 08:47:22;;;;;;;12.70;2.15;;;;;;;;;;5058557;28;20067;-60
2021/06/15 08:49:48;;;;;;;16.88;2.60;;;;;;;;;;5058935;28;20041;-61
2021/06/15 08:52:26;;;;;;;14.13;3.05;;;;;;;;;;5056704;28;20048;-60
2021/06/15 08:54:59;;;;;;;;;;;;;;;;;;5057244;28;20512;-61
2021/06/15 08:57:28;;;;;;;13.65;2.70;;;;;;;;;;5057648;28;19921;-61
2021/06/15 08:59:56;;;;;;;;;;;;;;;;;;5058634;28;20093;-61
2021/06/15 09:02:22;;;;;;;8.55;2.20;;;;;;;;;;5063902;28;20374;-61
2021/06/15 09:04:49;;;;;;;7.13;1.90;;;;;;;;;;5059971;28;20523;-61
2021/06/15 09:07:15;;;;;;;10.20;2.25;;;;;;;;;;5055656;28;20044;-61
2021/06/15 09:09:43;;;;;;;9.52;2.30;;;;;;;;;;5054799;28;20080;-61
2021/06/15 09:12:11;;;;;;;12.35;2.30;;;;;;;;;;5055450;28;20411;-61
2021/06/15 09:14:38;;;;;;;;;;;;;;;;;;5059152;28;20036;-61
2021/06/15 09:17:05;;;;;;;11.75;2.50;;;;;;;;;;5051949;28;19943;-61
2021/06/15 09:19:37;;;;;;;13.90;2.63;;;;;;;;;;5062078;28;20047;-61
2021/06/15 09:22:03;;;;;;;15.45;2.92;;;;;;;;;;5058461;28;20059;-61
2021/06/15 09:24:30;;;;;;;9.00;2.40;;;;;;;;;;5063061;28;20719;-61
2021/06/15 09:27:05;;;;;;;12.95;2.50;;;;;;;;;;5053800;28;20055;-61
2021/06/15 09:29:35;;;;;;;11.88;2.55;;;;;;;;;;5065090;28;20036;-61
2021/06/15 09:32:09;;;;;;;14.60;2.33;;;;;;;;;;5063688;28;20143;-61
2021/06/15 09:34:45;;;;;;;14.95;3.03;;;;;;;;;;5058007;28;20041;-61
2021/06/15 09:37:12;;;;;;;15.05;3.00;;;;;;;;;;5058990;28;20534;-61
2021/06/15 09:39:39;;;;;;;17.23;3.07;;;;;;;;;;5063983;28;20048;-61
2021/06/15 09:42:09;;;;;;;14.27;2.83;;;;;;;;;;5060049;28;20507;-60
2021/06/15 09:44:47;;;;;;;11.68;2.78;;;;;;;;;;5060396;28;20566;-61
2021/06/15 09:47:14;;;;;;;18.90;3.15;;;;;;;;;;5059860;28;20135;-60
2021/06/15 09:49:43;;;;;;;12.93;3.22;;;;;;;;;;5059791;28;20117;-60
2021/06/15 09:52:15;;;;;;;11.82;3.03;;;;;;;;;;5060917;28;20150;-59
2021/06/15 09:54:50;;;;;;;10.57;2.90;;;;;;;;;;5056471;28;20064;-58
2021/06/15 09:57:20;;;;;;;12.43;2.65;;;;;;;;;;5059539;28;20531;-59
2021/06/15 09:59:57;;;;;;;13.52;2.90;;;;;;;;;;5056486;28;20110;-58
2021/06/15 10:02:25;;;;;;;12.48;2.90;;;;;;;;;;5065735;28;20051;-59
2021/06/15 10:04:51;;;;;;;12.05;2.92;;;;;;;;;;5060444;28;20059;-59
2021/06/15 10:07:26;;;;;;;12.25;2.65;;;;;;;;;;5055619;28;20045;-59
2021/06/15 10:09:55;;;;;;;21.52;3.58;;;;;;;;;;5052329;28;20037;-59
2021/06/15 10:12:21;;;;;;;13.13;3.10;;;;;;;;;;5057392;28;20067;-59
2021/06/15 10:14:48;;;;;;;17.95;3.25;;;;;;;;;;5057103;28;20037;-59
2021/06/15 10:17:16;;;;;;;18.20;3.05;;;;;;;;;;5063556;28;20044;-59
2021/06/15 10:19:43;;;;;;;18.55;2.90;;;;;;;;;;5060296;28;20127;-59
2021/06/15 10:22:11;;;;;;;15.20;2.95;;;;;;;;;;5066466;28;20045;-59
2021/06/15 10:24:39;;;;;;;14.25;3.53;;;;;;;;;;5057715;28;20243;-59
2021/06/15 10:27:08;;;;;;;11.77;2.75;;;;;;;;;;5042638;28;20440;-59
2021/06/15 10:29:35;;;;;;;15.75;2.78;;;;;;;;;;5064437;28;20040;-59
2021/06/15 10:32:13;;;;;;;10.85;3.17;;;;;;;;;;5065598;28;20051;-59
2021/06/15 10:34:40;;;;;;;;;;;;;;;;;;5062779;28;20040;-58
2021/06/15 10:37:07;;;;;;;10.98;2.92;;;;;;;;;;5063423;28;19921;-58
2021/06/15 10:39:40;;;;;;;15.97;2.90;;;;;;;;;;5059377;28;20106;-58
2021/06/15 10:42:14;;;;;;;10.43;2.67;;;;;;;;;;5060131;28;20068;-59
2021/06/15 10:44:43;;;;;;;13.52;2.72;;;;;;;;;;5064830;28;20045;-59
2021/06/15 10:47:12;;;;;;;10.93;2.65;;;;;;;;;;5062979;28;20069;-58
2021/06/15 10:49:38;;;;;;;;;;;;;;;;;;5063404;28;20562;-59
2021/06/15 10:52:05;;;;;;;12.68;2.78;;;;;;;;;;5062806;28;19920;-59
2021/06/15 10:54:34;;;;;;;12.20;2.58;;;;;;;;;;5066080;28;20047;-58
2021/06/15 10:57:14;;;;;;;12.68;2.78;;;;;;;;;;5059661;28;20037;-58
2021/06/15 10:59:56;;;;;;;13.20;3.00;;;;;;;;;;5059303;28;20037;-59
2021/06/15 11:02:27;;;;;;;12.40;2.30;;;;;;;;;;5064567;28;20040;-58
2021/06/15 11:04:55;;;;;;;14.75;2.67;;;;;;;;;;5061172;28;20057;-59
2021/06/15 11:07:25;;;;;;;15.18;2.97;;;;;;;;;;5061903;28;20044;-58
2021/06/15 11:09:56;;;;;;;18.27;2.90;;;;;;;;;;5061704;28;20045;-58
2021/06/15 11:12:23;;;;;;;11.48;2.72;;;;;;;;;;5058050;28;20466;-59
2021/06/15 11:15:09;;;;;;;12.93;2.70;;;;;;;;;;5060937;28;20041;-59
2021/06/15 11:17:44;;;;;;;13.68;2.10;;;;;;;;;;5064341;28;20106;-58
2021/06/15 11:20:11;;;;;;;6.95;2.38;;;;;;;;;;5064880;28;20083;-58
2021/06/15 11:22:37;;;;;;;9.98;2.70;;;;;;;;;;5056631;28;20049;-59
2021/06/15 11:25:05;;;;;;;11.30;2.22;;;;;;;;;;5062152;28;20135;-59
2021/06/15 11:27:32;;;;;;;11.13;2.60;;;;;;;;;;5058951;28;20041;-58
2021/06/15 11:30:11;;;;;;;11.40;2.80;;;;;;;;;;5062467;28;20104;-58
2021/06/15 11:32:53;;;;;;;11.57;2.83;;;;;;;;;;5060229;28;20041;-58
2021/06/15 11:35:21;;;;;;;7.38;2.45;;;;;;;;;;5063370;28;20086;-59
2021/06/15 11:37:49;;;;;;;10.30;2.30;;;;;;;;;;5058744;28;20066;-59
2021/06/15 11:40:21;;;;;;;10.85;2.70;;;;;;;;;;5058938;28;20419;-59
2021/06/15 11:42:48;;;;;;;12.15;2.80;;;;;;;;;;5060304;28;20075;-59
2021/06/15 11:45:15;;;;;;;14.70;3.40;;;;;;;;;;5062812;28;20116;-59
2021/06/15 11:47:47;;;;;;;11.18;2.35;;;;;;;;;;5060877;28;20052;-59
2021/06/15 11:50:34;;;;;;;11.18;3.17;;;;;;;;;;5059690;28;20047;-59
2021/06/15 11:53:00;;;;;;;11.85;2.58;;;;;;;;;;5060620;28;20037;-59
2021/06/15 11:55:30;;;;;;;10.10;2.53;;;;;;;;;;5044868;28;20668;-59
2021/06/15 11:58:02;;;;;;;8.15;2.60;;;;;;;;;;5060895;28;20044;-59
2021/06/15 12:00:30;;;;;;;10.88;2.60;;;;;;;;;;5057376;28;20090;-59
2021/06/15 12:03:07;;;;;;;12.93;2.65;;;;;;;;;;5061624;28;20052;-58
2021/06/15 12:05:35;;;;;;;17.08;3.03;;;;;;;;;;5059239;28;20553;-59
2021/06/15 12:08:02;;;;;;;11.07;2.42;;;;;;;;;;5060954;28;20063;-59
2021/06/15 12:10:29;;;;;;;18.85;3.17;;;;;;;;;;5065367;28;20048;-58
2021/06/15 12:12:59;;;;;;;11.63;2.92;;;;;;;;;;5068074;28;20471;-59
2021/06/15 12:15:36;;;;;;;16.58;2.88;;;;;;;;;;5061875;28;20107;-58
2021/06/15 12:18:06;;;;;;;14.35;2.80;;;;;;;;;;5064221;28;20547;-59
2021/06/15 12:20:35;;;;;;;14.57;3.15;;;;;;;;;;5063939;28;20476;-58
2021/06/15 12:23:40;;;;;;;12.80;2.55;;;;;;;;;;5063176;28;20110;-59
2021/06/15 12:26:11;;;;;;;14.57;3.30;;;;;;;;;;4977600;28;20054;-59
2021/06/15 12:28:39;;;;;;;15.15;2.65;;;;;;;;;;4983497;28;20858;-59
2021/06/15 12:31:10;;;;;;;15.55;3.47;;;;;;;;;;5025322;28;20131;-58
2021/06/15 12:33:38;;;;;;;12.23;2.90;;;;;;;;;;5057567;28;20041;-58
2021/06/15 12:36:06;;;;;;;13.73;2.70;;;;;;;;;;5061890;28;20041;-58
2021/06/15 12:38:33;;;;;;;15.63;3.10;;;;;;;;;;5055728;28;20040;-58
2021/06/15 12:41:02;;;;;;;12.95;2.63;;;;;;;;;;5057321;28;20040;-58
2021/06/15 12:43:36;;;;;;;14.20;3.15;;;;;;;;;;5056722;28;20072;-59
2021/06/15 12:46:03;;;;;;;11.87;2.50;;;;;;;;;;5061840;28;20130;-58
2021/06/15 12:48:30;;;;;;;12.32;2.88;;;;;;;;;;5061174;28;20048;-59
2021/06/15 12:51:04;;;;;;;10.27;2.65;;;;;;;;;;5055753;28;20120;-58
2021/06/15 12:53:34;;;;;;;12.70;2.88;;;;;;;;;;5053396;28;20045;-59
2021/06/15 12:56:18;;;;;;;18.88;3.30;;;;;;;;;;5058399;28;20066;-59
2021/06/15 12:58:45;;;;;;;16.95;3.40;;;;;;;;;;5060166;28;20033;-58
2021/06/15 13:01:12;;;;;;;;;;;;;;;;;;5060281;28;20054;-59
2021/06/15 13:03:39;;;;;;;14.02;3.35;;;;;;;;;;5059421;28;19924;-58
2021/06/15 13:06:13;;;;;;;17.73;2.95;;;;;;;;;;5056750;28;20052;-59
2021/06/15 13:08:39;;;;;;;15.40;3.38;;;;;;;;;;5057916;28;20398;-59
2021/06/15 13:11:10;;;;;;;13.17;2.40;;;;;;;;;;5048630;28;20041;-58
2021/06/15 13:13:49;;;;;;;11.10;2.28;;;;;;;;;;5056581;28;20077;-58
2021/06/15 13:16:17;;;;;;;12.15;2.72;;;;;;;;;;5056573;28;20040;-58
2021/06/15 13:19:00;;;;;;;13.27;3.15;;;;;;;;;;5057085;28;20040;-59
2021/06/15 13:21:43;;;;;;;10.98;2.65;;;;;;;;;;5058874;28;20408;-58
2021/06/15 13:24:10;;;;;;;15.30;3.17;;;;;;;;;;5058091;28;20090;-58
2021/06/15 13:26:37;;;;;;;15.77;3.10;;;;;;;;;;5080151;28;20039;-59
2021/06/15 13:29:03;;;;;;;8.57;2.55;;;;;;;;;;5079491;28;20086;-58
2021/06/15 13:31:30;;;;;;;14.53;2.60;;;;;;;;;;5079788;28;20055;-58
2021/06/15 13:34:04;;;;;;;16.05;2.85;;;;;;;;;;5081607;28;20048;-58
2021/06/15 13:36:30;;;;;;;13.63;2.80;;;;;;;;;;5083501;28;20036;-58
2021/06/15 13:39:10;;;;;;;13.98;2.92;;;;;;;;;;5079923;28;20118;-58
2021/06/15 13:41:37;;;;;;;9.90;2.60;;;;;;;;;;5079030;28;20044;-58
2021/06/15 13:44:04;;;;;;;11.43;2.40;;;;;;;;;;5083760;28;20115;-58
2021/06/15 13:46:31;;;;;;;10.45;2.63;;;;;;;;;;5079440;28;20114;-58
2021/06/15 13:49:07;;;;;;;12.02;2.65;;;;;;;;;;5085141;28;20074;-58
2021/06/15 13:51:37;;;;;;;9.68;2.30;;;;;;;;;;5078563;28;20040;-58
2021/06/15 13:54:04;;;;;;;12.27;2.42;;;;;;;;;;5086377;28;20388;-59
2021/06/15 13:56:31;;;;;;;17.60;2.92;;;;;;;;;;5078342;28;20033;-58
2021/06/15 13:58:58;;;;;;;14.52;3.00;;;;;;;;;;5082167;28;20562;-58
2021/06/15 14:01:25;;;;;;;8.95;2.20;;;;;;;;;;5088003;28;20492;-58
2021/06/15 14:03:52;;;;;;;13.38;2.95;;;;;;;;;;5083901;28;20071;-58
2021/06/15 14:06:19;;;;;;;13.45;2.03;;;;;;;;;;5079708;28;20055;-58
2021/06/15 14:08:47;;;;;;;10.32;2.45;;;;;;;;;;5081280;28;20437;-58
2021/06/15 14:11:14;;;;;;;11.05;2.55;;;;;;;;;;5084021;28;20040;-58
2021/06/15 14:13:42;;;;;;;14.07;3.05;;;;;;;;;;5083012;28;20060;-59
2021/06/15 14:16:10;;;;;;;11.15;2.72;;;;;;;;;;5082762;28;20566;-59
2021/06/15 14:18:37;;;;;;;9.20;2.87;;;;;;;;;;5084935;28;20041;-58
2021/06/15 14:21:04;;;;;;;14.20;2.47;;;;;;;;;;5082903;28;20053;-59
2021/06/15 14:23:39;;;;;;;11.35;3.30;;;;;;;;;;5080502;28;20048;-58
2021/06/15 14:26:06;;;;;;;11.00;2.42;;;;;;;;;;5064198;28;20064;-57
2021/06/15 14:28:33;;;;;;;10.95;2.47;;;;;;;;;;5063898;28;20105;-58
2021/06/15 14:31:00;;;;;;;10.23;2.22;;;;;;;;;;5065367;28;20049;-58
2021/06/15 14:33:30;;;;;;;7.70;1.90;;;;;;;;;;5063468;28;20478;-59
2021/06/15 14:35:57;;;;;;;12.43;2.55;;;;;;;;;;5061222;28;20037;-58
2021/06/15 14:38:24;;;;;;;14.57;2.87;;;;;;;;;;5058751;28;20378;-59
2021/06/15 14:40:51;;;;;;;10.02;2.60;;;;;;;;;;5064211;28;20287;-59
2021/06/15 14:43:17;;;;;;;7.57;2.57;;;;;;;;;;5061061;28;20072;-58
2021/06/15 14:45:46;;;;;;;;;;;;;;;;;;5066109;28;20043;-59
2021/06/15 14:48:13;;;;;;;12.45;2.67;;;;;;;;;;5055380;28;20330;-59
2021/06/15 14:50:39;;;;;;;19.43;2.70;;;;;;;;;;5065788;28;20407;-58
2021/06/15 14:53:07;;;;;;;;;;;;;;;;;;5067620;28;20048;-58
2021/06/15 14:55:33;;;;;;;9.98;2.90;;;;;;;;;;5063913;28;20037;-59
2021/06/15 14:58:00;;;;;;;11.60;2.58;;;;;;;;;;5067524;28;20056;-59
2021/06/15 15:00:27;;;;;;;14.67;3.00;;;;;;;;;;5060118;28;20040;-59
2021/06/15 15:02:54;;;;;;;11.77;2.77;;;;;;;;;;5056653;28;20049;-59
2021/06/15 15:05:20;;;;;;;15.65;2.70;;;;;;;;;;5058543;28;20040;-59
2021/06/15 15:07:47;;;;;;;14.95;2.78;;;;;;;;;;5065316;28;20108;-58
2021/06/15 15:10:15;;;;;;;15.97;3.17;;;;;;;;;;5043776;28;20051;-57
2021/06/15 15:12:44;;;;;;;8.93;2.33;;;;;;;;;;5062430;28;20122;-58
2021/06/15 15:15:12;;;;;;;12.75;3.00;;;;;;;;;;5060301;28;20033;-59
2021/06/15 15:17:39;;;;;;;;;;;;;;;;;;5062077;28;20049;-58
2021/06/15 15:20:07;;;;;;;17.58;2.83;;;;;;;;;;5061779;28;19921;-58
2021/06/15 15:22:35;;;;;;;9.57;2.38;;;;;;;;;;5060842;28;20036;-58
2021/06/15 15:25:02;;;;;;;10.90;2.57;;;;;;;;;;5054313;28;20039;-59
2021/06/15 15:27:30;;;;;;;15.38;2.70;;;;;;;;;;5057951;28;20048;-58
2021/06/15 15:30:00;;;;;;;14.60;2.70;;;;;;;;;;5062153;28;20059;-58
2021/06/15 15:32:28;;;;;;;8.05;2.30;;;;;;;;;;5057514;28;20102;-59
2021/06/15 15:34:57;;;;;;;11.85;2.75;;;;;;;;;;5052817;28;20148;-57
2021/06/15 15:37:27;;;;;;;13.82;2.67;;;;;;;;;;5059892;28;20083;-59
2021/06/15 15:39:54;;;;;;;11.88;2.42;;;;;;;;;;5062242;28;20076;-59
2021/06/15 15:42:20;;;;;;;18.43;3.20;;;;;;;;;;5060601;28;20066;-59
2021/06/15 15:44:48;;;;;;;;;;;;;;;;;;5063273;28;20049;-58
2021/06/15 15:47:15;;;;;;;14.75;2.72;;;;;;;;;;5066661;28;19958;-59
2021/06/15 15:49:43;;;;;;;13.63;3.15;;;;;;;;;;5058330;28;20103;-59
2021/06/15 15:52:11;;;;;;;7.63;1.85;;;;;;;;;;5063650;28;20480;-58
2021/06/15 15:54:38;;;;;;;13.60;3.05;;;;;;;;;;5066534;28;20103;-59
2021/06/15 15:57:06;;;;;;;8.07;2.45;;;;;;;;;;5063612;28;20039;-59
2021/06/15 15:59:34;;;;;;;10.75;2.58;;;;;;;;;;5063694;28;20629;-58
2021/06/15 16:02:01;;;;;;;13.00;3.25;;;;;;;;;;5057452;28;20037;-58
2021/06/15 16:04:28;;;;;;;14.60;3.25;;;;;;;;;;5049358;28;20052;-59
2021/06/15 16:06:55;;;;;;;12.43;2.60;;;;;;;;;;5062681;28;20037;-59
2021/06/15 16:09:22;;;;;;;10.68;2.67;;;;;;;;;;5059671;28;20036;-59
2021/06/15 16:11:48;;;;;;;13.07;2.50;;;;;;;;;;5060446;28;20047;-58
2021/06/15 16:14:17;;;;;;;11.45;2.95;;;;;;;;;;5044913;28;20045;-58
2021/06/15 16:16:43;;;;;;;12.73;2.70;;;;;;;;;;5058497;28;20056;-59
2021/06/15 16:19:10;;;;;;;16.17;2.70;;;;;;;;;;5055106;28;20111;-57
2021/06/15 16:21:37;;;;;;;15.30;3.38;;;;;;;;;;5057992;28;20066;-58
2021/06/15 16:24:04;;;;;;;15.13;3.10;;;;;;;;;;5057452;28;20064;-57
2021/06/15 16:26:30;;;;;;;10.57;2.72;;;;;;;;;;5057792;28;20109;-57
2021/06/15 16:28:57;;;;;;;15.47;3.20;;;;;;;;;;5059797;28;20032;-57
2021/06/15 16:31:24;;;;;;;12.90;2.92;;;;;;;;;;5060682;28;20066;-57